Terminal Aerodrome Forecast
Issued by NWS Louisville, KY

Home | Current Version | Previous Version | Text Only | Print | Product List | Glossary On
Versions: 1 2 3 4 5 6 7 8 9 10 11 12 13 14 15 16 17 18 19 20 21 22
000
FTUS43 KLMK 222320
TAFBWG
TAF
KBWG 222320Z 2300/2324 VRB03KT P6SM OVC008
      TEMPO 2302/2306 OVC004
     FM230600 18008KT P6SM VCSH BKN008 WS020/21035KT
     FM230900 19010KT 4SM SHRA BR OVC025
     FM231300 21012G18KT 4SM -SHRA BR BKN021
     FM232100 25007KT P6SM VCSH OVC025=

USA.gov is the U.S. government's official web portal to all federal, state and local government web resources and services.